createdAt,value
2023-02-18T00:01:00.054Z,51.48
2023-02-18T00:03:34.298Z,51.42
2023-02-18T00:06:15.948Z,51.76
2023-02-18T00:08:51.743Z,51.77
2023-02-18T00:11:27.410Z,51.53
2023-02-18T00:14:02.366Z,51.26
2023-02-18T00:16:36.672Z,51.69
2023-02-18T00:19:12.951Z,51.56
2023-02-18T00:21:47.154Z,51.85
2023-02-18T00:24:21.011Z,51.58
2023-02-18T00:26:56.302Z,51.74
2023-02-18T00:29:29.946Z,51.52
2023-02-18T00:32:03.671Z,51.62
2023-02-18T00:34:37.564Z,52.13
2023-02-18T00:37:11.166Z,51.78
2023-02-18T00:39:45.561Z,52.23
2023-02-18T00:42:19.371Z,52.11
2023-02-18T00:44:53.211Z,51.84
2023-02-18T00:47:27.495Z,52.28
2023-02-18T00:50:01.543Z,52.10
2023-02-18T00:52:35.226Z,52.52
2023-02-18T00:55:11.595Z,52.08
2023-02-18T00:57:45.178Z,52.09
2023-02-18T01:00:20.735Z,52.23
2023-02-18T01:02:55.360Z,51.90
2023-02-18T01:05:29.307Z,52.30
2023-02-18T01:08:11.747Z,52.24
2023-02-18T01:10:47.805Z,52.19
2023-02-18T01:13:21.456Z,51.99
2023-02-18T01:15:55.361Z,51.82
2023-02-18T01:18:29.425Z,52.13
2023-02-18T01:21:03.916Z,51.80
2023-02-18T01:23:40.902Z,52.11
2023-02-18T01:26:16.201Z,52.19
2023-02-18T01:28:50.001Z,52.42
2023-02-18T01:31:23.785Z,52.38
2023-02-18T01:33:58.654Z,52.36
2023-02-18T01:36:32.795Z,52.66
2023-02-18T01:39:06.806Z,52.46
2023-02-18T01:41:41.866Z,52.64
2023-02-18T01:44:20.907Z,52.27
2023-02-18T01:46:55.577Z,52.58
2023-02-18T01:49:31.114Z,52.41
2023-02-18T01:52:07.697Z,52.38
2023-02-18T01:54:44.410Z,52.33
2023-02-18T01:57:19.564Z,52.34
2023-02-18T01:59:59.030Z,52.62
2023-02-18T02:02:34.851Z,52.68
2023-02-18T02:05:09.742Z,52.65
2023-02-18T02:07:45.356Z,52.53
2023-02-18T02:10:20.771Z,53.33
2023-02-18T02:13:02.558Z,53.03
2023-02-18T02:15:43.459Z,53.42
2023-02-18T02:18:26.912Z,53.25
2023-02-18T02:21:29.864Z,53.49
2023-02-18T02:24:18.253Z,54.08
2023-02-18T02:27:10.200Z,53.90
2023-02-18T02:30:08.264Z,53.75
2023-02-18T02:32:50.000Z,53.82
2023-02-18T02:35:27.322Z,53.53
2023-02-18T02:38:05.296Z,53.74
2023-02-18T02:40:45.160Z,54.15
2023-02-18T02:43:23.651Z,53.94
2023-02-18T02:46:00.600Z,53.98
2023-02-18T02:48:38.530Z,54.14
2023-02-18T02:51:15.613Z,54.10
2023-02-18T02:53:47.189Z,54.14
2023-02-18T02:56:22.397Z,53.96
2023-02-18T02:59:00.146Z,54.10
2023-02-18T03:01:42.330Z,53.97
2023-02-18T03:04:27.903Z,53.60
2023-02-18T03:07:13.957Z,53.97
2023-02-18T03:09:57.708Z,54.04
2023-02-18T03:12:38.033Z,53.91
2023-02-18T03:15:16.645Z,53.93
2023-02-18T03:17:58.966Z,54.04
2023-02-18T03:20:36.666Z,54.16
2023-02-18T03:23:13.367Z,54.37
2023-02-18T03:25:48.663Z,54.14
2023-02-18T03:28:24.927Z,54.19
2023-02-18T03:31:00.758Z,54.38
2023-02-18T03:33:38.218Z,54.50
2023-02-18T03:36:14.174Z,54.61
2023-02-18T03:38:56.309Z,54.74
2023-02-18T03:41:31.499Z,54.62
2023-02-18T03:44:06.869Z,54.75
2023-02-18T03:46:43.502Z,54.83
2023-02-18T03:49:19.706Z,54.70
2023-02-18T03:51:53.870Z,55.01
2023-02-18T03:54:27.587Z,54.87
2023-02-18T03:57:01.340Z,55.05
2023-02-18T03:59:35.550Z,54.51
2023-02-18T04:02:09.233Z,54.78
2023-02-18T04:04:43.112Z,55.15
2023-02-18T04:07:19.136Z,55.25
2023-02-18T04:09:53.296Z,55.00
2023-02-18T04:12:27.220Z,54.62
2023-02-18T04:15:00.845Z,54.68
2023-02-18T04:17:36.146Z,54.32
2023-02-18T04:20:13.446Z,54.63
2023-02-18T04:22:47.561Z,54.37
2023-02-18T04:25:21.630Z,54.51
2023-02-18T04:27:55.359Z,54.24
2023-02-18T04:30:29.552Z,54.20
2023-02-18T04:33:03.429Z,53.64
2023-02-18T04:35:37.294Z,53.51
2023-02-18T04:38:11.647Z,53.60
2023-02-18T04:40:45.705Z,53.21
2023-02-18T04:43:19.878Z,52.71
2023-02-18T04:45:55.468Z,52.49
2023-02-18T04:48:29.095Z,52.19
2023-02-18T04:51:03.980Z,52.02
2023-02-18T04:53:38.592Z,52.08
2023-02-18T04:56:12.208Z,51.54
2023-02-18T04:58:45.695Z,51.41
2023-02-18T05:01:19.747Z,51.13
2023-02-18T05:03:53.791Z,50.91
2023-02-18T05:06:27.442Z,50.69
2023-02-18T05:09:02.211Z,50.52
2023-02-18T05:11:38.309Z,50.36
2023-02-18T05:14:14.195Z,50.51
2023-02-18T05:16:47.912Z,49.56
2023-02-18T05:19:21.540Z,49.22
2023-02-18T05:21:55.049Z,48.88
2023-02-18T05:24:29.167Z,48.61
2023-02-18T05:27:03.062Z,48.24
2023-02-18T05:29:36.829Z,47.95
2023-02-18T05:32:11.796Z,47.61
2023-02-18T05:34:45.873Z,47.14
2023-02-18T05:37:20.920Z,46.02
2023-02-18T05:39:55.810Z,46.21
2023-02-18T05:42:29.752Z,45.60
2023-02-18T05:45:04.501Z,45.29
2023-02-18T05:47:38.183Z,44.43
2023-02-18T05:50:14.614Z,44.38
2023-02-18T05:52:50.376Z,44.01
2023-02-18T05:55:25.086Z,43.74
2023-02-18T05:58:02.274Z,43.22
2023-02-18T06:00:36.780Z,42.70
2023-02-18T06:03:13.221Z,41.83
2023-02-18T06:05:48.351Z,42.05
2023-02-18T06:08:24.131Z,41.62
2023-02-18T06:10:58.973Z,41.61
2023-02-18T06:13:34.858Z,41.35
2023-02-18T06:16:09.952Z,41.19
2023-02-18T06:18:44.032Z,40.78
2023-02-18T06:21:17.608Z,39.85
2023-02-18T06:23:51.408Z,39.80
2023-02-18T06:26:25.499Z,39.77
2023-02-18T06:29:02.081Z,39.01
2023-02-18T06:31:36.612Z,38.49
2023-02-18T06:34:10.718Z,39.19
2023-02-18T06:36:44.681Z,38.81
2023-02-18T06:39:18.879Z,38.36
2023-02-18T06:41:52.367Z,37.93
2023-02-18T06:44:27.111Z,37.48
2023-02-18T06:47:01.449Z,37.17
2023-02-18T06:49:37.041Z,36.46
2023-02-18T06:52:11.054Z,35.69
2023-02-18T06:54:44.834Z,34.24
2023-02-18T06:57:18.623Z,32.58
2023-02-18T06:59:52.758Z,31.15
2023-02-18T07:02:29.684Z,30.92
2023-02-18T07:05:04.180Z,30.37
2023-02-18T07:07:37.782Z,29.68
2023-02-18T07:10:13.684Z,28.96
2023-02-18T07:12:48.353Z,28.70
2023-02-18T07:15:25.737Z,27.99
2023-02-18T07:17:59.296Z,27.47
2023-02-18T07:20:34.283Z,27.77
2023-02-18T07:23:09.475Z,27.79
2023-02-18T07:25:43.751Z,27.34
2023-02-18T07:28:17.990Z,27.88
2023-02-18T07:30:51.583Z,28.61
2023-02-18T07:33:25.430Z,29.00
2023-02-18T07:36:01.410Z,29.12
2023-02-18T07:38:42.926Z,29.12
2023-02-18T07:41:25.117Z,29.30
2023-02-18T07:44:01.082Z,28.97
2023-02-18T07:46:34.773Z,28.89
2023-02-18T07:49:08.457Z,29.17
2023-02-18T07:51:42.029Z,29.28
2023-02-18T07:54:16.138Z,30.11
2023-02-18T07:56:51.441Z,30.69
2023-02-18T07:59:27.268Z,31.41
2023-02-18T08:02:00.917Z,31.69
2023-02-18T08:04:34.902Z,32.19
2023-02-18T08:07:10.342Z,32.21
2023-02-18T08:09:46.070Z,31.95
2023-02-18T08:12:22.159Z,31.84
2023-02-18T08:14:56.161Z,31.45
2023-02-18T08:17:31.780Z,31.57
2023-02-18T08:20:06.237Z,31.35
2023-02-18T08:22:41.484Z,31.19
2023-02-18T08:25:27.659Z,30.87
2023-02-18T08:28:04.735Z,31.12
2023-02-18T08:30:38.428Z,31.21
2023-02-18T08:33:12.118Z,30.45
2023-02-18T08:35:48.480Z,31.06
2023-02-18T08:38:22.108Z,30.79
2023-02-18T08:41:01.372Z,31.19
2023-02-18T08:43:35.748Z,31.89
2023-02-18T08:46:15.668Z,32.08
2023-02-18T08:48:50.367Z,31.63
2023-02-18T08:51:28.828Z,32.09
2023-02-18T08:54:02.577Z,32.12
2023-02-18T08:56:36.853Z,31.63
2023-02-18T08:59:11.597Z,31.83
2023-02-18T09:01:45.268Z,31.28
2023-02-18T09:04:19.075Z,30.89
2023-02-18T09:06:52.946Z,30.56
2023-02-18T09:09:26.755Z,31.23
2023-02-18T09:12:00.953Z,31.44
2023-02-18T09:14:34.770Z,31.46
2023-02-18T09:17:08.361Z,31.84
2023-02-18T09:19:42.081Z,32.51
2023-02-18T09:22:16.187Z,32.97
2023-02-18T09:24:50.068Z,33.32
2023-02-18T09:27:24.325Z,33.96
2023-02-18T09:29:58.081Z,34.33
2023-02-18T09:32:35.173Z,34.47
2023-02-18T09:35:10.347Z,34.64
2023-02-18T09:37:44.090Z,34.58
2023-02-18T09:40:28.709Z,35.22
2023-02-18T09:43:03.002Z,35.36
2023-02-18T09:45:37.335Z,35.35
2023-02-18T09:48:12.382Z,35.76
2023-02-18T09:50:46.175Z,35.64
2023-02-18T09:53:20.020Z,35.83
2023-02-18T09:55:55.745Z,35.82
2023-02-18T09:58:31.673Z,36.02
2023-02-18T10:01:09.521Z,36.00
2023-02-18T10:03:44.415Z,36.29
2023-02-18T10:06:21.963Z,36.16
2023-02-18T10:08:56.945Z,35.99
2023-02-18T10:11:34.128Z,36.11
2023-02-18T10:14:13.421Z,36.01
2023-02-18T10:16:48.059Z,36.26
2023-02-18T10:19:28.222Z,36.08
2023-02-18T10:22:04.419Z,36.46
2023-02-18T10:24:40.410Z,36.38
2023-02-18T10:27:18.016Z,36.31
2023-02-18T10:29:52.334Z,36.30
2023-02-18T10:32:29.434Z,36.17
2023-02-18T10:35:10.986Z,36.31
2023-02-18T10:38:05.856Z,35.90
2023-02-18T10:40:48.636Z,36.12
2023-02-18T10:43:31.506Z,36.18
2023-02-18T10:46:12.563Z,35.92
2023-02-18T10:49:02.307Z,35.71
2023-02-18T10:51:37.914Z,35.59
2023-02-18T10:54:11.390Z,35.85
2023-02-18T10:56:48.902Z,35.85
2023-02-18T10:59:26.122Z,35.55
2023-02-18T11:02:04.504Z,35.91
2023-02-18T11:04:42.427Z,35.93
2023-02-18T11:07:19.011Z,36.00
2023-02-18T11:09:54.478Z,36.03
2023-02-18T11:12:30.790Z,36.24
2023-02-18T11:15:19.992Z,36.37
2023-02-18T11:17:54.791Z,36.56
2023-02-18T11:20:32.390Z,36.59
2023-02-18T11:23:21.001Z,36.33
2023-02-18T11:26:03.681Z,36.28
2023-02-18T11:28:45.260Z,36.22
2023-02-18T11:31:25.471Z,36.27
2023-02-18T11:34:03.640Z,36.32
2023-02-18T11:36:39.126Z,36.30
2023-02-18T11:39:23.424Z,36.08
2023-02-18T11:42:00.849Z,36.15
2023-02-18T11:44:36.486Z,36.22
2023-02-18T11:47:26.663Z,36.09
2023-02-18T11:50:22.583Z,36.07
2023-02-18T11:52:57.880Z,36.22
2023-02-18T11:55:34.710Z,36.19
2023-02-18T11:58:11.287Z,35.87
2023-02-18T12:00:46.702Z,35.90
2023-02-18T12:03:28.373Z,35.61
2023-02-18T12:06:06.176Z,35.65
2023-02-18T12:08:46.194Z,35.41
2023-02-18T12:11:25.148Z,35.50
2023-02-18T12:14:00.197Z,35.30
2023-02-18T12:16:39.661Z,35.40
2023-02-18T12:19:33.335Z,35.35
2023-02-18T12:22:11.428Z,35.32
2023-02-18T12:24:57.921Z,35.17
2023-02-18T12:27:36.052Z,35.33
2023-02-18T12:30:30.202Z,35.30
2023-02-18T12:33:09.576Z,35.28
2023-02-18T12:35:52.953Z,35.45
2023-02-18T12:38:41.366Z,35.46
2023-02-18T12:41:29.166Z,35.50
2023-02-18T12:44:12.916Z,35.80
2023-02-18T12:46:59.843Z,36.00
2023-02-18T12:50:00.514Z,36.23
2023-02-18T12:52:40.690Z,36.68
2023-02-18T12:55:32.812Z,36.78
2023-02-18T12:58:15.167Z,36.91
2023-02-18T13:01:15.927Z,37.02
2023-02-18T13:04:02.132Z,37.26
2023-02-18T13:07:05.235Z,37.11
2023-02-18T13:09:47.798Z,37.26
2023-02-18T13:12:26.321Z,37.34
2023-02-18T13:15:04.086Z,37.07
2023-02-18T13:17:40.570Z,36.96
2023-02-18T13:20:22.673Z,37.24
2023-02-18T13:22:56.675Z,37.50
2023-02-18T13:25:30.182Z,37.78
2023-02-18T13:28:10.676Z,37.72
2023-02-18T13:30:47.762Z,37.94
2023-02-18T13:33:26.174Z,38.16
2023-02-18T13:39:52.005Z,38.69
2023-02-18T13:42:39.576Z,38.11
2023-02-18T13:48:31.404Z,38.47
2023-02-18T13:51:05.462Z,38.25
2023-02-18T13:53:38.361Z,38.59
2023-02-18T13:56:11.453Z,38.52
2023-02-18T13:58:44.171Z,38.44
2023-02-18T14:01:34.403Z,38.77
2023-02-18T14:04:25.878Z,39.00
2023-02-18T14:07:24.192Z,39.54
2023-02-18T14:09:55.340Z,39.67
2023-02-18T14:12:37.979Z,39.92
2023-02-18T14:15:43.424Z,39.97
2023-02-18T14:18:26.499Z,40.50
2023-02-18T14:21:06.744Z,40.56
2023-02-18T14:23:58.822Z,40.87
2023-02-18T14:26:34.422Z,41.47
2023-02-18T14:29:12.393Z,41.78
2023-02-18T14:31:54.193Z,42.36
2023-02-18T14:35:01.587Z,42.41
2023-02-18T14:37:54.143Z,42.34
2023-02-18T14:40:33.315Z,42.84
2023-02-18T14:43:08.390Z,43.19
2023-02-18T14:46:04.777Z,43.35
2023-02-18T14:49:00.920Z,43.40
2023-02-18T14:51:33.162Z,43.79
2023-02-18T14:54:07.228Z,44.03
2023-02-18T14:56:43.179Z,44.20
2023-02-18T14:59:14.915Z,43.86
2023-02-18T15:01:47.332Z,44.35
2023-02-18T15:04:18.033Z,44.62
2023-02-18T15:06:58.279Z,44.91
2023-02-18T15:09:28.722Z,44.94
2023-02-18T15:12:02.059Z,44.89
2023-02-18T15:14:34.870Z,45.10
2023-02-18T15:17:06.304Z,44.75
2023-02-18T15:19:39.985Z,45.11
2023-02-18T15:22:16.814Z,45.04
2023-02-18T15:24:47.659Z,45.19
2023-02-18T15:27:19.855Z,45.16
2023-02-18T15:29:53.689Z,45.37
2023-02-18T15:32:27.292Z,45.45
2023-02-18T15:35:01.440Z,45.61
2023-02-18T15:37:32.767Z,45.39
2023-02-18T15:40:04.578Z,45.92
2023-02-18T15:42:36.905Z,46.12
2023-02-18T15:45:18.109Z,46.06
2023-02-18T15:47:50.515Z,46.18
2023-02-18T15:50:23.523Z,46.01
2023-02-18T15:52:56.579Z,46.08
2023-02-18T15:55:31.068Z,46.29
2023-02-18T15:58:04.471Z,46.61
2023-02-18T16:00:38.011Z,46.70
2023-02-18T16:03:14.651Z,46.58
2023-02-18T16:05:46.166Z,46.82
2023-02-18T16:08:25.200Z,46.76
2023-02-18T16:11:02.067Z,46.79
2023-02-18T16:13:37.898Z,46.96
2023-02-18T16:16:18.902Z,47.06
2023-02-18T16:18:49.950Z,46.66
2023-02-18T16:21:33.437Z,47.19
2023-02-18T16:24:05.963Z,47.45
2023-02-18T16:26:45.437Z,47.14
2023-02-18T16:29:21.658Z,47.64
2023-02-18T16:31:54.044Z,47.70
2023-02-18T16:34:24.612Z,47.56
2023-02-18T16:37:13.042Z,47.94
2023-02-18T16:39:44.877Z,48.91
2023-02-18T16:42:15.320Z,49.00
2023-02-18T16:44:51.583Z,49.46
2023-02-18T16:47:22.027Z,49.98
2023-02-18T16:49:54.204Z,50.25
2023-02-18T16:52:24.864Z,50.69
2023-02-18T16:54:56.305Z,50.91
2023-02-18T16:57:27.137Z,51.17
2023-02-18T17:00:00.101Z,51.37
2023-02-18T17:02:33.166Z,51.66
2023-02-18T17:05:14.282Z,52.16
2023-02-18T17:07:51.808Z,52.52
2023-02-18T17:10:23.989Z,52.67
2023-02-18T17:12:54.768Z,52.76
2023-02-18T17:15:30.677Z,52.75
2023-02-18T17:18:04.170Z,52.62
2023-02-18T17:20:34.975Z,52.98
2023-02-18T17:23:05.814Z,53.17
2023-02-18T17:25:40.914Z,53.19
2023-02-18T17:28:11.610Z,53.23
2023-02-18T17:30:42.924Z,53.21
2023-02-18T17:33:16.327Z,53.48
2023-02-18T17:35:47.869Z,53.63
2023-02-18T17:38:21.685Z,53.54
2023-02-18T17:40:57.468Z,54.04
2023-02-18T17:43:28.331Z,53.87
2023-02-18T17:46:00.979Z,53.80
2023-02-18T17:48:31.394Z,53.60
2023-02-18T17:51:02.649Z,53.54
2023-02-18T17:53:33.006Z,53.94
2023-02-18T17:56:04.137Z,54.15
2023-02-18T17:58:35.404Z,53.83
2023-02-18T18:01:11.634Z,54.49
2023-02-18T18:03:42.066Z,54.85
2023-02-18T18:06:18.924Z,55.02
2023-02-18T18:08:50.337Z,54.99
2023-02-18T18:11:22.506Z,54.97
2023-02-18T18:13:54.405Z,54.79
2023-02-18T18:16:25.197Z,54.86
2023-02-18T18:18:56.027Z,54.41
2023-02-18T18:21:32.188Z,54.24
2023-02-18T18:24:04.535Z,54.05
2023-02-18T18:26:35.662Z,54.01
2023-02-18T18:29:06.787Z,54.12
2023-02-18T18:31:38.466Z,54.14
2023-02-18T18:34:11.210Z,53.89
2023-02-18T18:36:41.930Z,53.68
2023-02-18T18:39:12.839Z,53.25
2023-02-18T18:41:43.212Z,52.76
2023-02-18T18:44:14.989Z,52.26
2023-02-18T18:46:46.267Z,52.08
2023-02-18T18:49:16.645Z,51.52
2023-02-18T18:51:47.777Z,51.56
2023-02-18T18:54:18.084Z,51.31
2023-02-18T18:56:49.963Z,51.29
2023-02-18T18:59:21.090Z,50.90
2023-02-18T19:01:53.991Z,50.95
2023-02-18T19:04:26.190Z,50.86
2023-02-18T19:06:57.740Z,50.83
2023-02-18T19:09:28.772Z,50.80
2023-02-18T19:12:00.619Z,50.43
2023-02-18T19:14:31.119Z,50.44
2023-02-18T19:17:03.393Z,50.13
2023-02-18T19:19:35.065Z,50.03
2023-02-18T19:22:05.569Z,50.13
2023-02-18T19:24:36.062Z,50.28
2023-02-18T19:27:06.460Z,50.56
2023-02-18T19:29:39.620Z,51.23
2023-02-18T19:32:10.767Z,51.67
2023-02-18T19:34:42.877Z,51.75
2023-02-18T19:37:14.118Z,51.71
2023-02-18T19:39:46.693Z,51.49
2023-02-18T19:42:19.764Z,51.01
2023-02-18T19:44:54.279Z,50.59
2023-02-18T19:47:26.004Z,50.32
2023-02-18T19:49:59.534Z,50.11
2023-02-18T19:52:30.982Z,50.05
2023-02-18T19:55:02.293Z,50.04
2023-02-18T19:57:35.038Z,49.89
2023-02-18T20:00:08.724Z,50.20
2023-02-18T20:02:40.469Z,50.07
2023-02-18T20:05:12.276Z,50.08
2023-02-18T20:07:45.810Z,50.11
2023-02-18T20:10:22.337Z,50.26
2023-02-18T20:12:58.718Z,50.04
2023-02-18T20:15:29.006Z,50.22
2023-02-18T20:18:03.802Z,50.10
2023-02-18T20:20:35.618Z,50.39
2023-02-18T20:23:08.328Z,50.59
2023-02-18T20:25:40.253Z,50.76
2023-02-18T20:28:10.966Z,50.48
2023-02-18T20:30:44.338Z,50.47
2023-02-18T20:33:17.847Z,50.41
2023-02-18T20:35:59.176Z,50.25
2023-02-18T20:38:33.176Z,50.22
2023-02-18T20:41:09.119Z,50.56
2023-02-18T20:43:41.048Z,50.88
2023-02-18T20:46:16.136Z,51.65
2023-02-18T20:48:48.213Z,52.37
2023-02-18T20:51:22.452Z,53.05
2023-02-18T20:53:56.959Z,53.01
2023-02-18T20:56:29.796Z,53.31
2023-02-18T20:59:00.337Z,53.33
2023-02-18T21:01:31.898Z,53.33
2023-02-18T21:04:04.634Z,53.25
2023-02-18T21:06:38.878Z,53.33
2023-02-18T21:09:13.424Z,53.63
2023-02-18T21:11:44.800Z,54.06
2023-02-18T21:22:30.299Z,55.46
2023-02-18T21:25:04.606Z,55.62
2023-02-18T21:27:36.507Z,55.57
2023-02-18T21:30:12.640Z,55.97
2023-02-18T21:32:43.450Z,56.31
2023-02-18T21:35:13.666Z,56.29
2023-02-18T21:37:44.044Z,56.62
2023-02-18T21:40:14.462Z,56.77
2023-02-18T21:42:44.886Z,57.04
2023-02-18T21:45:16.839Z,57.01
2023-02-18T21:47:50.613Z,57.23
2023-02-18T21:50:22.250Z,57.51
2023-02-18T21:52:54.306Z,57.16
2023-02-18T21:55:27.199Z,57.53
2023-02-18T21:57:59.703Z,57.46
2023-02-18T22:00:31.647Z,57.40
2023-02-18T22:03:05.757Z,57.78
2023-02-18T22:05:37.235Z,57.89
2023-02-18T22:08:10.049Z,58.15
2023-02-18T22:10:42.513Z,58.26
2023-02-18T22:13:14.801Z,58.34
2023-02-18T22:15:46.843Z,57.94
2023-02-18T22:18:17.967Z,57.27
2023-02-18T22:20:49.066Z,55.94
2023-02-18T22:23:20.236Z,55.22
2023-02-18T22:25:54.359Z,55.12
2023-02-18T22:28:25.221Z,55.01
2023-02-18T22:30:55.411Z,55.04
2023-02-18T22:33:27.942Z,55.07
2023-02-18T22:35:58.385Z,54.73
2023-02-18T22:38:30.269Z,53.99
2023-02-18T22:41:06.308Z,53.76
2023-02-18T22:43:38.080Z,53.31
2023-02-18T22:46:11.628Z,52.92
2023-02-18T22:48:44.898Z,52.73
2023-02-18T22:51:20.046Z,52.14
2023-02-18T22:53:54.555Z,51.96
2023-02-18T22:56:26.371Z,51.92
2023-02-18T22:58:59.085Z,51.59
2023-02-18T23:01:30.823Z,51.51
2023-02-18T23:04:05.102Z,51.59
2023-02-18T23:06:36.659Z,51.71
2023-02-18T23:09:07.922Z,51.75
2023-02-18T23:11:38.686Z,51.74
2023-02-18T23:14:19.180Z,52.12
2023-02-18T23:17:08.608Z,52.18
2023-02-18T23:19:40.841Z,52.74
2023-02-18T23:22:12.539Z,52.99
2023-02-18T23:24:44.736Z,52.90
2023-02-18T23:27:16.634Z,53.23
2023-02-18T23:29:47.659Z,53.38
2023-02-18T23:32:17.939Z,53.99
2023-02-18T23:34:48.163Z,54.18
2023-02-18T23:37:39.412Z,54.57
2023-02-18T23:40:13.392Z,55.39
2023-02-18T23:42:44.015Z,55.77
2023-02-18T23:45:14.368Z,56.58
2023-02-18T23:47:44.614Z,56.69
2023-02-18T23:50:15.669Z,57.06
2023-02-18T23:52:46.998Z,57.53
2023-02-18T23:55:18.385Z,58.79
2023-02-18T23:57:49.438Z,59.39
